Carpathia — WBC2454 — position and weather

sailwx.info

Track history (hours):
 
Tides and Currents Weather Stations Pressure Air Temp Water Temp Dewpoint Dewpoint Depression Visibility Wind Speed Wind Dir Waves Ship Positions

Carpathia

Owner: BRUSTOWICZ, THEODORE R, COVINGTON, LA. More information available from US FCC via Universal Licensing System and Coast Guard Vessel Documentation Center.

Last reported at 2014-Nov-20 10:19 UTC. Time now 2014-Nov-23 05:57 UTC.
Position N 30°01' W 091°29'.

Length 23 m; draft 4 m.

Type: Towing. MMSI: 366993420.

Date/timePositionNaut miles runAvg speedWind from/ knotsBaromVisibWave heightAir tempDewpointWater temp
2014-Nov-20 10:19N 30°01' W 091°29'4 4.6
2014-Nov-20 09:33N 29°58' W 091°28'5 4.5
2014-Nov-20 08:32N 29°53' W 091°26'5 4.7
2014-Nov-20 07:33N 29°50' W 091°23'5 4.6
2014-Nov-20 06:33N 29°46' W 091°20'5 4.5
2014-Nov-20 05:33N 29°46' W 091°15'4 4.2
2014-Nov-20 04:33N 29°42' W 091°13'3 3.3
2014-Nov-20 03:33N 29°39' W 091°15'5 4.7
2014-Nov-20 02:33N 29°38' W 091°21'5 4.6
2014-Nov-20 01:33N 29°40' W 091°26'4 4.0
2014-Nov-20 00:33N 29°42' W 091°30'5 4.6
2014-Nov-19 23:30N 29°44' W 091°34'  
2014-Nov-10 10:32N 29°51' W 093°58'  
Track history (hours):
 
Tides and Currents Weather Stations Pressure Air Temp Water Temp Dewpoint Dewpoint Depression Visibility Wind Speed Wind Dir Waves Ship Positions

Carpathia

Owner: BRUSTOWICZ, THEODORE R, COVINGTON, LA. More information available from US FCC via Universal Licensing System and Coast Guard Vessel Documentation Center.

Last reported at 2014-Nov-20 10:19 UTC. Time now 2014-Nov-23 05:57 UTC.
Position N 30°01' W 091°29'.

Length 23 m; draft 4 m.

Type: Towing. MMSI: 366993420.

Date/timePositionNaut miles runAvg speedWind from/ knotsBaromVisibWave heightAir tempDewpointWater temp
2014-Nov-20 10:19N 30°01' W 091°29'4 4.6
2014-Nov-20 09:33N 29°58' W 091°28'5 4.5
2014-Nov-20 08:32N 29°53' W 091°26'5 4.7
2014-Nov-20 07:33N 29°50' W 091°23'5 4.6
2014-Nov-20 06:33N 29°46' W 091°20'5 4.5
2014-Nov-20 05:33N 29°46' W 091°15'4 4.2
2014-Nov-20 04:33N 29°42' W 091°13'3 3.3
2014-Nov-20 03:33N 29°39' W 091°15'5 4.7
2014-Nov-20 02:33N 29°38' W 091°21'5 4.6
2014-Nov-20 01:33N 29°40' W 091°26'4 4.0
2014-Nov-20 00:33N 29°42' W 091°30'5 4.6
2014-Nov-19 23:30N 29°44' W 091°34'  
2014-Nov-10 10:32N 29°51' W 093°58'  

Dump ship's entire track history